sensor_id;sensor_type;location;lat;lon;timestamp;temperature;humidity
55365;DHT22;41245;45.384;20.390;2023-02-22T00:00:21;231.20;2252.80
55365;DHT22;41245;45.384;20.390;2023-02-22T00:02:54;231.10;2252.80
55365;DHT22;41245;45.384;20.390;2023-02-22T00:05:26;231.10;2252.80
55365;DHT22;41245;45.384;20.390;2023-02-22T00:07:52;231.10;2252.80
55365;DHT22;41245;45.384;20.390;2023-02-22T00:10:22;231.10;2252.80
55365;DHT22;41245;45.384;20.390;2023-02-22T00:12:53;231.10;2252.80
55365;DHT22;41245;45.384;20.390;2023-02-22T00:15:21;231.10;2252.80
55365;DHT22;41245;45.384;20.390;2023-02-22T00:17:47;231.00;2252.80
55365;DHT22;41245;45.384;20.390;2023-02-22T00:20:14;231.00;2252.80
55365;DHT22;41245;45.384;20.390;2023-02-22T00:22:43;230.90;2252.80
55365;DHT22;41245;45.384;20.390;2023-02-22T00:25:14;231.00;2252.80
55365;DHT22;41245;45.384;20.390;2023-02-22T00:27:42;231.00;2252.80
55365;DHT22;41245;45.384;20.390;2023-02-22T00:30:08;231.00;2252.80
55365;DHT22;41245;45.384;20.390;2023-02-22T00:32:37;231.10;2252.80
55365;DHT22;41245;45.384;20.390;2023-02-22T00:35:03;231.10;2252.80
55365;DHT22;41245;45.384;20.390;2023-02-22T00:37:32;231.10;2252.80
55365;DHT22;41245;45.384;20.390;2023-02-22T00:40:00;231.10;2252.80
55365;DHT22;41245;45.384;20.390;2023-02-22T00:42:26;231.10;2252.80
55365;DHT22;41245;45.384;20.390;2023-02-22T00:44:51;231.10;2252.80
55365;DHT22;41245;45.384;20.390;2023-02-22T00:47:17;231.10;2252.80
55365;DHT22;41245;45.384;20.390;2023-02-22T00:49:43;231.10;2252.80
55365;DHT22;41245;45.384;20.390;2023-02-22T00:52:08;231.10;2252.80
55365;DHT22;41245;45.384;20.390;2023-02-22T00:54:34;231.10;2252.80
55365;DHT22;41245;45.384;20.390;2023-02-22T00:57:00;231.10;2252.80
55365;DHT22;41245;45.384;20.390;2023-02-22T00:59:26;231.10;2252.80
55365;DHT22;41245;45.384;20.390;2023-02-22T01:01:52;231.10;2252.80
55365;DHT22;41245;45.384;20.390;2023-02-22T01:04:18;231.10;2252.80
55365;DHT22;41245;45.384;20.390;2023-02-22T01:06:43;231.10;2252.80
55365;DHT22;41245;45.384;20.390;2023-02-22T01:09:09;231.10;2252.80
55365;DHT22;41245;45.384;20.390;2023-02-22T01:11:35;231.10;2252.80
55365;DHT22;41245;45.384;20.390;2023-02-22T01:14:00;231.10;2252.80
55365;DHT22;41245;45.384;20.390;2023-02-22T01:16:26;231.10;2252.80
55365;DHT22;41245;45.384;20.390;2023-02-22T01:18:51;231.10;2252.80
55365;DHT22;41245;45.384;20.390;2023-02-22T01:21:17;231.20;2252.80
55365;DHT22;41245;45.384;20.390;2023-02-22T01:23:44;231.20;2252.80
55365;DHT22;41245;45.384;20.390;2023-02-22T01:26:10;231.10;2252.80
55365;DHT22;41245;45.384;20.390;2023-02-22T01:28:37;231.10;2252.80
55365;DHT22;41245;45.384;20.390;2023-02-22T01:31:03;231.10;2252.80
55365;DHT22;41245;45.384;20.390;2023-02-22T01:33:29;231.10;2252.80
55365;DHT22;41245;45.384;20.390;2023-02-22T01:35:55;231.10;2252.80
55365;DHT22;41245;45.384;20.390;2023-02-22T01:38:21;231.10;2252.80
55365;DHT22;41245;45.384;20.390;2023-02-22T01:40:48;231.10;2252.80
55365;DHT22;41245;45.384;20.390;2023-02-22T01:51:02;231.10;2252.80
55365;DHT22;41245;45.384;20.390;2023-02-22T01:53:45;231.20;2252.80
55365;DHT22;41245;45.384;20.390;2023-02-22T01:56:12;231.10;2252.80
55365;DHT22;41245;45.384;20.390;2023-02-22T01:58:41;231.20;2252.80
55365;DHT22;41245;45.384;20.390;2023-02-22T02:01:08;231.20;2252.80
55365;DHT22;41245;45.384;20.390;2023-02-22T02:03:35;231.20;2252.80
55365;DHT22;41245;45.384;20.390;2023-02-22T02:06:05;231.20;2252.80
55365;DHT22;41245;45.384;20.390;2023-02-22T02:11:06;231.10;2252.80
55365;DHT22;41245;45.384;20.390;2023-02-22T02:13:32;256.00;2252.80
55365;DHT22;41245;45.384;20.390;2023-02-22T02:15:58;231.30;2252.80
55365;DHT22;41245;45.384;20.390;2023-02-22T02:18:25;231.10;2252.80
55365;DHT22;41245;45.384;20.390;2023-02-22T02:27:13;231.10;2252.80
55365;DHT22;41245;45.384;20.390;2023-02-22T02:36:04;231.10;2252.80
55365;DHT22;41245;45.384;20.390;2023-02-22T02:49:02;231.20;2252.80
55365;DHT22;41245;45.384;20.390;2023-02-22T02:51:35;231.20;2252.80
55365;DHT22;41245;45.384;20.390;2023-02-22T02:54:03;231.20;2252.80
55365;DHT22;41245;45.384;20.390;2023-02-22T02:56:29;231.30;2252.80
55365;DHT22;41245;45.384;20.390;2023-02-22T02:58:55;231.30;2252.80
55365;DHT22;41245;45.384;20.390;2023-02-22T03:04:36;231.30;2252.80
55365;DHT22;41245;45.384;20.390;2023-02-22T03:19:05;231.10;2252.80
55365;DHT22;41245;45.384;20.390;2023-02-22T03:21:09;231.10;2252.80
55365;DHT22;41245;45.384;20.390;2023-02-22T03:26:42;231.10;2252.80
55365;DHT22;41245;45.384;20.390;2023-02-22T03:29:11;231.10;2252.80
55365;DHT22;41245;45.384;20.390;2023-02-22T03:31:50;231.10;2252.80
55365;DHT22;41245;45.384;20.390;2023-02-22T03:34:23;231.10;2252.80
55365;DHT22;41245;45.384;20.390;2023-02-22T03:36:59;231.00;2252.80
55365;DHT22;41245;45.384;20.390;2023-02-22T03:39:28;231.00;2252.80
55365;DHT22;41245;45.384;20.390;2023-02-22T03:42:02;231.00;2252.80
55365;DHT22;41245;45.384;20.390;2023-02-22T03:44:30;231.00;2252.80
55365;DHT22;41245;45.384;20.390;2023-02-22T03:47:01;230.90;2252.80
55365;DHT22;41245;45.384;20.390;2023-02-22T03:49:39;230.90;2252.80
55365;DHT22;41245;45.384;20.390;2023-02-22T03:52:07;230.80;2252.80
55365;DHT22;41245;45.384;20.390;2023-02-22T03:54:33;230.80;2252.80
55365;DHT22;41245;45.384;20.390;2023-02-22T03:57:24;230.80;2252.80
55365;DHT22;41245;45.384;20.390;2023-02-22T03:59:50;230.80;2252.80
55365;DHT22;41245;45.384;20.390;2023-02-22T04:02:16;230.80;2252.80
55365;DHT22;41245;45.384;20.390;2023-02-22T04:04:46;230.70;2252.80
55365;DHT22;41245;45.384;20.390;2023-02-22T04:07:12;230.70;2252.80
55365;DHT22;41245;45.384;20.390;2023-02-22T04:09:38;230.70;2252.80
55365;DHT22;41245;45.384;20.390;2023-02-22T04:12:04;230.60;2252.80
55365;DHT22;41245;45.384;20.390;2023-02-22T04:14:29;230.50;2252.80
55365;DHT22;41245;45.384;20.390;2023-02-22T04:16:55;230.60;2252.80
55365;DHT22;41245;45.384;20.390;2023-02-22T04:19:21;230.60;2252.80
55365;DHT22;41245;45.384;20.390;2023-02-22T04:21:46;230.50;2252.80
55365;DHT22;41245;45.384;20.390;2023-02-22T04:24:13;230.60;2252.80
55365;DHT22;41245;45.384;20.390;2023-02-22T04:26:39;230.50;2252.80
55365;DHT22;41245;45.384;20.390;2023-02-22T04:29:05;230.40;2252.80
55365;DHT22;41245;45.384;20.390;2023-02-22T04:31:31;230.40;2252.80
55365;DHT22;41245;45.384;20.390;2023-02-22T04:33:58;230.40;2252.80
55365;DHT22;41245;45.384;20.390;2023-02-22T04:36:25;205.70;2252.80
55365;DHT22;41245;45.384;20.390;2023-02-22T04:38:51;205.70;2252.80
55365;DHT22;41245;45.384;20.390;2023-02-22T04:41:18;205.60;2252.80
55365;DHT22;41245;45.384;20.390;2023-02-22T04:43:44;205.60;2252.80
55365;DHT22;41245;45.384;20.390;2023-02-22T04:46:11;205.60;2252.80
55365;DHT22;41245;45.384;20.390;2023-02-22T04:48:36;205.60;2252.80
55365;DHT22;41245;45.384;20.390;2023-02-22T04:51:02;205.60;2252.80
55365;DHT22;41245;45.384;20.390;2023-02-22T04:53:28;205.70;2252.80
55365;DHT22;41245;45.384;20.390;2023-02-22T04:55:54;205.60;2252.80
55365;DHT22;41245;45.384;20.390;2023-02-22T04:58:20;205.60;2252.80
55365;DHT22;41245;45.384;20.390;2023-02-22T05:00:45;205.60;2252.80
55365;DHT22;41245;45.384;20.390;2023-02-22T05:03:11;205.60;2252.80
55365;DHT22;41245;45.384;20.390;2023-02-22T05:05:37;205.60;2252.80
55365;DHT22;41245;45.384;20.390;2023-02-22T05:08:02;205.60;2252.80
55365;DHT22;41245;45.384;20.390;2023-02-22T05:10:28;205.40;2252.80
55365;DHT22;41245;45.384;20.390;2023-02-22T05:12:54;205.50;2252.80
55365;DHT22;41245;45.384;20.390;2023-02-22T05:15:21;205.50;2252.80
55365;DHT22;41245;45.384;20.390;2023-02-22T05:17:47;205.60;2252.80
55365;DHT22;41245;45.384;20.390;2023-02-22T05:20:33;205.50;2252.80
55365;DHT22;41245;45.384;20.390;2023-02-22T05:23:00;205.60;2252.80
55365;DHT22;41245;45.384;20.390;2023-02-22T05:25:27;205.60;2252.80
55365;DHT22;41245;45.384;20.390;2023-02-22T05:28:02;205.60;2252.80
55365;DHT22;41245;45.384;20.390;2023-02-22T05:30:31;205.70;2252.80
55365;DHT22;41245;45.384;20.390;2023-02-22T05:32:57;230.40;2252.80
55365;DHT22;41245;45.384;20.390;2023-02-22T05:35:24;230.40;2252.80
55365;DHT22;41245;45.384;20.390;2023-02-22T05:37:50;230.40;2252.80
55365;DHT22;41245;45.384;20.390;2023-02-22T05:40:20;230.40;2252.80
55365;DHT22;41245;45.384;20.390;2023-02-22T05:42:47;230.50;2252.80
55365;DHT22;41245;45.384;20.390;2023-02-22T05:45:15;230.60;2252.80
55365;DHT22;41245;45.384;20.390;2023-02-22T05:47:41;230.60;2252.80
55365;DHT22;41245;45.384;20.390;2023-02-22T05:50:07;230.70;2252.80
55365;DHT22;41245;45.384;20.390;2023-02-22T05:52:32;230.70;2252.80
55365;DHT22;41245;45.384;20.390;2023-02-22T05:54:58;230.60;2252.80
55365;DHT22;41245;45.384;20.390;2023-02-22T05:57:24;230.70;2252.80
55365;DHT22;41245;45.384;20.390;2023-02-22T05:59:49;230.50;2252.80
55365;DHT22;41245;45.384;20.390;2023-02-22T06:02:15;230.70;2252.80
55365;DHT22;41245;45.384;20.390;2023-02-22T06:04:44;230.80;2252.80
55365;DHT22;41245;45.384;20.390;2023-02-22T06:07:10;230.90;2252.80
55365;DHT22;41245;45.384;20.390;2023-02-22T06:09:35;230.90;2252.80
55365;DHT22;41245;45.384;20.390;2023-02-22T06:12:01;231.00;2252.80
55365;DHT22;41245;45.384;20.390;2023-02-22T06:14:26;231.10;2252.80
55365;DHT22;41245;45.384;20.390;2023-02-22T06:16:53;231.10;2252.80
55365;DHT22;41245;45.384;20.390;2023-02-22T06:19:19;231.20;2252.80
55365;DHT22;41245;45.384;20.390;2023-02-22T06:21:53;231.30;2252.80
55365;DHT22;41245;45.384;20.390;2023-02-22T06:24:19;231.30;2252.80
55365;DHT22;41245;45.384;20.390;2023-02-22T06:26:45;256.00;2252.80
55365;DHT22;41245;45.384;20.390;2023-02-22T06:29:11;256.10;2252.80
55365;DHT22;41245;45.384;20.390;2023-02-22T06:31:37;256.20;2252.80
55365;DHT22;41245;45.384;20.390;2023-02-22T06:34:03;256.20;2252.80
55365;DHT22;41245;45.384;20.390;2023-02-22T06:36:29;256.30;2252.80
55365;DHT22;41245;45.384;20.390;2023-02-22T06:38:56;256.30;2252.80
55365;DHT22;41245;45.384;20.390;2023-02-22T06:41:21;256.50;2252.80
55365;DHT22;41245;45.384;20.390;2023-02-22T06:43:47;256.60;2252.80
55365;DHT22;41245;45.384;20.390;2023-02-22T06:46:13;256.60;2252.80
55365;DHT22;41245;45.384;20.390;2023-02-22T06:48:39;256.70;2252.80
55365;DHT22;41245;45.384;20.390;2023-02-22T06:51:07;256.80;2252.80
55365;DHT22;41245;45.384;20.390;2023-02-22T06:53:33;256.90;2252.80
55365;DHT22;41245;45.384;20.390;2023-02-22T06:55:59;256.90;2252.80
55365;DHT22;41245;45.384;20.390;2023-02-22T06:58:25;281.70;2278.40
55365;DHT22;41245;45.384;20.390;2023-02-22T07:00:51;281.70;2278.40
55365;DHT22;41245;45.384;20.390;2023-02-22T07:03:17;281.90;2278.40
55365;DHT22;41245;45.384;20.390;2023-02-22T07:05:43;282.40;2278.40
55365;DHT22;41245;45.384;20.390;2023-02-22T07:08:10;282.20;2278.40
55365;DHT22;41245;45.384;20.390;2023-02-22T07:10:36;282.30;2278.40
55365;DHT22;41245;45.384;20.390;2023-02-22T07:13:04;282.50;2278.40
55365;DHT22;41245;45.384;20.390;2023-02-22T07:15:31;282.50;2278.40
55365;DHT22;41245;45.384;20.390;2023-02-22T07:17:57;307.20;2304.00
55365;DHT22;41245;45.384;20.390;2023-02-22T07:20:24;307.40;2304.00
55365;DHT22;41245;45.384;20.390;2023-02-22T07:22:50;307.40;2304.00
55365;DHT22;41245;45.384;20.390;2023-02-22T07:25:16;307.60;2304.00
55365;DHT22;41245;45.384;20.390;2023-02-22T07:27:42;307.70;2304.00
55365;DHT22;41245;45.384;20.390;2023-02-22T07:30:18;307.70;2304.00
55365;DHT22;41245;45.384;20.390;2023-02-22T07:32:44;307.70;2304.00
55365;DHT22;41245;45.384;20.390;2023-02-22T07:35:24;307.80;2304.00
55365;DHT22;41245;45.384;20.390;2023-02-22T07:37:50;307.90;2304.00
55365;DHT22;41245;45.384;20.390;2023-02-22T07:40:17;307.90;2304.00
55365;DHT22;41245;45.384;20.390;2023-02-22T07:42:57;308.00;2304.00
55365;DHT22;41245;45.384;20.390;2023-02-22T07:45:26;308.00;2304.00
55365;DHT22;41245;45.384;20.390;2023-02-22T07:47:52;308.10;2304.00
55365;DHT22;41245;45.384;20.390;2023-02-22T07:50:19;332.90;2329.60
55365;DHT22;41245;45.384;20.390;2023-02-22T07:52:46;333.00;2329.60
55365;DHT22;41245;45.384;20.390;2023-02-22T07:55:18;333.10;2329.60
55365;DHT22;41245;45.384;20.390;2023-02-22T07:57:49;333.00;2329.60
55365;DHT22;41245;45.384;20.390;2023-02-22T08:00:20;333.00;2329.60
55365;DHT22;41245;45.384;20.390;2023-02-22T08:02:48;333.20;2329.60
55365;DHT22;41245;45.384;20.390;2023-02-22T08:05:14;333.20;2329.60
55365;DHT22;41245;45.384;20.390;2023-02-22T08:07:40;333.40;2329.60
55365;DHT22;41245;45.384;20.390;2023-02-22T08:10:09;333.60;2329.60
55365;DHT22;41245;45.384;20.390;2023-02-22T08:12:36;333.60;2329.60
55365;DHT22;41245;45.384;20.390;2023-02-22T08:15:04;358.40;2329.60
55365;DHT22;41245;45.384;20.390;2023-02-22T08:17:30;358.50;2329.60
55365;DHT22;41245;45.384;20.390;2023-02-22T08:19:55;358.70;2329.60
55365;DHT22;41245;45.384;20.390;2023-02-22T08:22:21;358.60;2329.60
55365;DHT22;41245;45.384;20.390;2023-02-22T08:24:48;358.70;2329.60
55365;DHT22;41245;45.384;20.390;2023-02-22T08:27:22;358.70;2329.60
55365;DHT22;41245;45.384;20.390;2023-02-22T08:29:48;358.80;2329.60
55365;DHT22;41245;45.384;20.390;2023-02-22T08:32:13;358.70;2329.60
55365;DHT22;41245;45.384;20.390;2023-02-22T08:34:41;358.70;2329.60
55365;DHT22;41245;45.384;20.390;2023-02-22T08:37:07;358.60;2329.60
55365;DHT22;41245;45.384;20.390;2023-02-22T08:39:33;358.50;2329.60
55365;DHT22;41245;45.384;20.390;2023-02-22T08:41:58;358.50;2329.60
55365;DHT22;41245;45.384;20.390;2023-02-22T08:44:24;358.40;2329.60
55365;DHT22;41245;45.384;20.390;2023-02-22T08:46:50;333.70;2329.60
55365;DHT22;41245;45.384;20.390;2023-02-22T08:49:16;333.70;2329.60
55365;DHT22;41245;45.384;20.390;2023-02-22T08:51:42;333.70;2329.60
55365;DHT22;41245;45.384;20.390;2023-02-22T08:54:07;333.70;2329.60
55365;DHT22;41245;45.384;20.390;2023-02-22T08:56:33;333.70;2329.60
55365;DHT22;41245;45.384;20.390;2023-02-22T08:58:59;333.70;2329.60
55365;DHT22;41245;45.384;20.390;2023-02-22T09:01:24;333.70;2329.60
55365;DHT22;41245;45.384;20.390;2023-02-22T09:03:50;358.40;2329.60
55365;DHT22;41245;45.384;20.390;2023-02-22T09:06:17;358.50;2329.60
55365;DHT22;41245;45.384;20.390;2023-02-22T09:08:43;358.70;2329.60
55365;DHT22;41245;45.384;20.390;2023-02-22T09:11:08;358.80;2329.60
55365;DHT22;41245;45.384;20.390;2023-02-22T09:13:34;358.90;2329.60
55365;DHT22;41245;45.384;20.390;2023-02-22T09:16:00;358.90;2329.60
55365;DHT22;41245;45.384;20.390;2023-02-22T09:18:27;359.00;2329.60
55365;DHT22;41245;45.384;20.390;2023-02-22T09:20:53;359.10;2329.60
55365;DHT22;41245;45.384;20.390;2023-02-22T09:23:19;359.20;2329.60
55365;DHT22;41245;45.384;20.390;2023-02-22T09:25:46;359.20;2329.60
55365;DHT22;41245;45.384;20.390;2023-02-22T09:28:12;359.30;2329.60
55365;DHT22;41245;45.384;20.390;2023-02-22T09:30:38;359.30;2329.60
55365;DHT22;41245;45.384;20.390;2023-02-22T09:33:13;384.00;2329.60
55365;DHT22;41245;45.384;20.390;2023-02-22T09:35:40;384.00;2329.60
55365;DHT22;41245;45.384;20.390;2023-02-22T09:38:12;384.10;2329.60
55365;DHT22;41245;45.384;20.390;2023-02-22T09:46:17;384.40;2329.60
55365;DHT22;41245;45.384;20.390;2023-02-22T09:49:15;384.40;2329.60
55365;DHT22;41245;45.384;20.390;2023-02-22T09:52:04;384.30;2329.60
55365;DHT22;41245;45.384;20.390;2023-02-22T09:57:40;384.70;2329.60
55365;DHT22;41245;45.384;20.390;2023-02-22T10:00:31;384.80;2329.60
55365;DHT22;41245;45.384;20.390;2023-02-22T10:03:15;384.80;2329.60
55365;DHT22;41245;45.384;20.390;2023-02-22T10:08:32;409.60;2355.20
55365;DHT22;41245;45.384;20.390;2023-02-22T10:22:25;409.80;2355.20
55365;DHT22;41245;45.384;20.390;2023-02-22T10:25:00;410.00;2355.20
55365;DHT22;41245;45.384;20.390;2023-02-22T10:27:37;410.10;2355.20
55365;DHT22;41245;45.384;20.390;2023-02-22T10:30:19;410.10;2355.20
55365;DHT22;41245;45.384;20.390;2023-02-22T10:32:49;410.20;2355.20
55365;DHT22;41245;45.384;20.390;2023-02-22T10:35:26;410.20;2355.20
55365;DHT22;41245;45.384;20.390;2023-02-22T10:37:57;410.40;2355.20
55365;DHT22;41245;45.384;20.390;2023-02-22T10:40:25;410.50;2355.20
55365;DHT22;41245;45.384;20.390;2023-02-22T10:43:07;410.50;2355.20
55365;DHT22;41245;45.384;20.390;2023-02-22T10:45:34;410.50;2355.20
55365;DHT22;41245;45.384;20.390;2023-02-22T10:48:07;410.50;2355.20
55365;DHT22;41245;45.384;20.390;2023-02-22T10:50:34;410.40;2355.20
55365;DHT22;41245;45.384;20.390;2023-02-22T10:53:01;410.50;2355.20
55365;DHT22;41245;45.384;20.390;2023-02-22T10:55:27;435.30;2355.20
55365;DHT22;41245;45.384;20.390;2023-02-22T10:58:02;435.30;2355.20
55365;DHT22;41245;45.384;20.390;2023-02-22T11:00:37;435.40;2355.20
55365;DHT22;41245;45.384;20.390;2023-02-22T11:03:18;435.40;2355.20
55365;DHT22;41245;45.384;20.390;2023-02-22T11:08:28;435.70;2355.20
55365;DHT22;41245;45.384;20.390;2023-02-22T11:10:58;435.50;2355.20
55365;DHT22;41245;45.384;20.390;2023-02-22T11:15:54;435.60;2355.20
55365;DHT22;41245;45.384;20.390;2023-02-22T11:18:24;435.70;1971.20
55365;DHT22;41245;45.384;20.390;2023-02-22T11:21:06;435.60;2355.20
55365;DHT22;41245;45.384;20.390;2023-02-22T11:23:33;435.60;2355.20
55365;DHT22;41245;45.384;20.390;2023-02-22T11:26:12;435.70;2355.20
55365;DHT22;41245;45.384;20.390;2023-02-22T11:28:48;435.70;2355.20
55365;DHT22;41245;45.384;20.390;2023-02-22T11:31:22;435.80;2355.20
55365;DHT22;41245;45.384;20.390;2023-02-22T11:33:54;435.90;2355.20
55365;DHT22;41245;45.384;20.390;2023-02-22T11:36:32;435.80;2355.20
55365;DHT22;41245;45.384;20.390;2023-02-22T11:39:02;435.80;2355.20
55365;DHT22;41245;45.384;20.390;2023-02-22T11:41:33;435.90;2355.20
55365;DHT22;41245;45.384;20.390;2023-02-22T11:46:51;436.00;1971.20
55365;DHT22;41245;45.384;20.390;2023-02-22T11:49:22;436.00;2355.20
55365;DHT22;41245;45.384;20.390;2023-02-22T12:13:49;461.10;2176.00
55365;DHT22;41245;45.384;20.390;2023-02-22T12:19:30;461.20;2150.40
55365;DHT22;41245;45.384;20.390;2023-02-22T12:22:04;461.10;2278.40
55365;DHT22;41245;45.384;20.390;2023-02-22T12:27:21;461.30;2252.80
55365;DHT22;41245;45.384;20.390;2023-02-22T12:30:05;461.30;2355.20
55365;DHT22;41245;45.384;20.390;2023-02-22T13:03:50;486.50;2380.80
55365;DHT22;41245;45.384;20.390;2023-02-22T16:22:04;384.50;2329.60
55365;DHT22;41245;45.384;20.390;2023-02-22T16:24:34;384.20;2329.60
55365;DHT22;41245;45.384;20.390;2023-02-22T16:27:06;384.10;2329.60
55365;DHT22;41245;45.384;20.390;2023-02-22T16:29:31;384.00;2329.60
55365;DHT22;41245;45.384;20.390;2023-02-22T16:31:57;384.00;2329.60
55365;DHT22;41245;45.384;20.390;2023-02-22T16:34:23;359.30;2329.60
55365;DHT22;41245;45.384;20.390;2023-02-22T16:36:49;359.20;2329.60
55365;DHT22;41245;45.384;20.390;2023-02-22T16:39:21;359.10;2329.60
55365;DHT22;41245;45.384;20.390;2023-02-22T16:41:48;359.00;2329.60
55365;DHT22;41245;45.384;20.390;2023-02-22T16:44:14;358.90;2329.60
55365;DHT22;41245;45.384;20.390;2023-02-22T16:46:41;358.80;2329.60
55365;DHT22;41245;45.384;20.390;2023-02-22T16:49:09;358.70;2329.60
55365;DHT22;41245;45.384;20.390;2023-02-22T16:51:43;358.60;2329.60
55365;DHT22;41245;45.384;20.390;2023-02-22T16:54:19;358.60;2329.60
55365;DHT22;41245;45.384;20.390;2023-02-22T16:56:44;358.40;2329.60
55365;DHT22;41245;45.384;20.390;2023-02-22T16:59:13;358.40;2329.60
55365;DHT22;41245;45.384;20.390;2023-02-22T17:01:40;333.70;2329.60
55365;DHT22;41245;45.384;20.390;2023-02-22T17:04:15;333.60;2329.60
55365;DHT22;41245;45.384;20.390;2023-02-22T17:06:43;333.60;2329.60
55365;DHT22;41245;45.384;20.390;2023-02-22T17:09:08;333.50;2329.60
55365;DHT22;41245;45.384;20.390;2023-02-22T17:11:35;333.50;2329.60
55365;DHT22;41245;45.384;20.390;2023-02-22T17:14:02;333.40;2329.60
55365;DHT22;41245;45.384;20.390;2023-02-22T17:16:28;333.30;2329.60
55365;DHT22;41245;45.384;20.390;2023-02-22T17:18:54;333.30;2329.60
55365;DHT22;41245;45.384;20.390;2023-02-22T17:21:20;333.20;2329.60
55365;DHT22;41245;45.384;20.390;2023-02-22T17:23:46;333.10;2329.60
55365;DHT22;41245;45.384;20.390;2023-02-22T17:26:13;333.10;2329.60
55365;DHT22;41245;45.384;20.390;2023-02-22T17:28:40;332.80;2329.60
55365;DHT22;41245;45.384;20.390;2023-02-22T17:31:06;308.00;2304.00
55365;DHT22;41245;45.384;20.390;2023-02-22T17:33:35;307.80;2304.00
55365;DHT22;41245;45.384;20.390;2023-02-22T17:36:02;307.80;2304.00
55365;DHT22;41245;45.384;20.390;2023-02-22T17:38:29;307.80;2304.00
55365;DHT22;41245;45.384;20.390;2023-02-22T17:40:57;307.80;2304.00
55365;DHT22;41245;45.384;20.390;2023-02-22T17:43:24;307.90;2304.00
55365;DHT22;41245;45.384;20.390;2023-02-22T17:45:50;307.70;2304.00
55365;DHT22;41245;45.384;20.390;2023-02-22T17:48:16;307.70;2304.00
55365;DHT22;41245;45.384;20.390;2023-02-22T17:50:44;307.70;2304.00
55365;DHT22;41245;45.384;20.390;2023-02-22T17:53:11;307.70;2304.00
55365;DHT22;41245;45.384;20.390;2023-02-22T17:55:39;307.60;2304.00
55365;DHT22;41245;45.384;20.390;2023-02-22T17:58:06;307.40;2304.00
55365;DHT22;41245;45.384;20.390;2023-02-22T18:00:36;307.20;2304.00
55365;DHT22;41245;45.384;20.390;2023-02-22T18:03:06;307.20;2304.00
55365;DHT22;41245;45.384;20.390;2023-02-22T18:05:39;307.20;2304.00
55365;DHT22;41245;45.384;20.390;2023-02-22T18:08:05;307.20;2304.00
55365;DHT22;41245;45.384;20.390;2023-02-22T18:10:30;307.20;2304.00
55365;DHT22;41245;45.384;20.390;2023-02-22T18:12:56;282.50;2278.40
55365;DHT22;41245;45.384;20.390;2023-02-22T18:15:26;282.40;2278.40
55365;DHT22;41245;45.384;20.390;2023-02-22T18:17:53;282.40;2278.40
55365;DHT22;41245;45.384;20.390;2023-02-22T18:20:18;282.40;2278.40
55365;DHT22;41245;45.384;20.390;2023-02-22T18:23:06;282.40;2278.40
55365;DHT22;41245;45.384;20.390;2023-02-22T18:25:33;282.50;2278.40
55365;DHT22;41245;45.384;20.390;2023-02-22T18:28:03;282.40;2278.40
55365;DHT22;41245;45.384;20.390;2023-02-22T18:30:31;282.40;2278.40
55365;DHT22;41245;45.384;20.390;2023-02-22T18:32:57;282.40;2278.40
55365;DHT22;41245;45.384;20.390;2023-02-22T18:35:23;282.40;2278.40
55365;DHT22;41245;45.384;20.390;2023-02-22T18:37:48;282.30;2278.40
55365;DHT22;41245;45.384;20.390;2023-02-22T18:40:14;282.30;2278.40
55365;DHT22;41245;45.384;20.390;2023-02-22T18:42:44;282.30;2278.40
55365;DHT22;41245;45.384;20.390;2023-02-22T18:45:11;282.20;2278.40
55365;DHT22;41245;45.384;20.390;2023-02-22T18:47:38;282.20;2278.40
55365;DHT22;41245;45.384;20.390;2023-02-22T18:50:05;282.30;2278.40
55365;DHT22;41245;45.384;20.390;2023-02-22T18:52:33;282.30;2278.40
55365;DHT22;41245;45.384;20.390;2023-02-22T18:55:00;282.30;2278.40
55365;DHT22;41245;45.384;20.390;2023-02-22T18:57:25;282.30;2278.40
55365;DHT22;41245;45.384;20.390;2023-02-22T18:59:51;282.30;2278.40
55365;DHT22;41245;45.384;20.390;2023-02-22T19:02:17;282.30;2278.40
55365;DHT22;41245;45.384;20.390;2023-02-22T19:04:46;282.30;2278.40
55365;DHT22;41245;45.384;20.390;2023-02-22T19:07:12;282.40;2278.40
55365;DHT22;41245;45.384;20.390;2023-02-22T19:09:44;282.40;2278.40
55365;DHT22;41245;45.384;20.390;2023-02-22T19:12:10;282.40;2278.40
55365;DHT22;41245;45.384;20.390;2023-02-22T19:14:36;282.40;2278.40
55365;DHT22;41245;45.384;20.390;2023-02-22T19:17:02;282.30;2278.40
55365;DHT22;41245;45.384;20.390;2023-02-22T19:19:31;282.10;2278.40
55365;DHT22;41245;45.384;20.390;2023-02-22T19:21:57;282.10;2278.40
55365;DHT22;41245;45.384;20.390;2023-02-22T19:24:23;282.00;2278.40
55365;DHT22;41245;45.384;20.390;2023-02-22T19:26:48;282.00;2278.40
55365;DHT22;41245;45.384;20.390;2023-02-22T19:29:22;282.00;2278.40
55365;DHT22;41245;45.384;20.390;2023-02-22T19:31:48;281.90;2278.40
55365;DHT22;41245;45.384;20.390;2023-02-22T19:34:17;281.90;2278.40
55365;DHT22;41245;45.384;20.390;2023-02-22T19:36:45;281.80;2278.40
55365;DHT22;41245;45.384;20.390;2023-02-22T19:39:12;281.80;2278.40
55365;DHT22;41245;45.384;20.390;2023-02-22T19:41:38;281.90;2278.40
55365;DHT22;41245;45.384;20.390;2023-02-22T19:44:04;281.70;2278.40
55365;DHT22;41245;45.384;20.390;2023-02-22T19:46:31;281.70;2278.40
55365;DHT22;41245;45.384;20.390;2023-02-22T19:48:56;281.60;2278.40
55365;DHT22;41245;45.384;20.390;2023-02-22T19:51:25;256.90;2252.80
55365;DHT22;41245;45.384;20.390;2023-02-22T19:53:54;256.80;2252.80
55365;DHT22;41245;45.384;20.390;2023-02-22T19:56:21;256.70;2252.80
55365;DHT22;41245;45.384;20.390;2023-02-22T19:58:53;256.70;2252.80
55365;DHT22;41245;45.384;20.390;2023-02-22T20:01:30;256.70;2252.80
55365;DHT22;41245;45.384;20.390;2023-02-22T20:04:11;256.80;2252.80
55365;DHT22;41245;45.384;20.390;2023-02-22T20:06:39;256.70;2252.80
55365;DHT22;41245;45.384;20.390;2023-02-22T20:09:12;256.60;2252.80
55365;DHT22;41245;45.384;20.390;2023-02-22T20:11:39;256.60;2252.80
55365;DHT22;41245;45.384;20.390;2023-02-22T20:14:05;256.50;2252.80
55365;DHT22;41245;45.384;20.390;2023-02-22T20:16:34;256.80;2252.80
55365;DHT22;41245;45.384;20.390;2023-02-22T20:19:00;256.40;2252.80